sensor_id;sensor_type;location;lat;lon;timestamp;P1;durP1;ratioP1;P2;durP2;ratioP2
12271;SDS011;6198;51.446;6.698;2023-11-19T00:00:09;19.85;;;15.73;;
12271;SDS011;6198;51.446;6.698;2023-11-19T00:02:39;17.83;;;13.98;;
12271;SDS011;6198;51.446;6.698;2023-11-19T00:05:05;12.70;;;9.37;;
12271;SDS011;6198;51.446;6.698;2023-11-19T00:07:34;13.52;;;11.30;;
12271;SDS011;6198;51.446;6.698;2023-11-19T00:10:01;12.20;;;11.00;;
12271;SDS011;6198;51.446;6.698;2023-11-19T00:12:31;13.93;;;11.13;;
12271;SDS011;6198;51.446;6.698;2023-11-19T00:14:57;13.07;;;11.67;;
12271;SDS011;6198;51.446;6.698;2023-11-19T00:17:23;11.07;;;10.05;;
12271;SDS011;6198;51.446;6.698;2023-11-19T00:19:50;10.20;;;9.20;;
12271;SDS011;6198;51.446;6.698;2023-11-19T00:22:16;10.63;;;9.52;;
12271;SDS011;6198;51.446;6.698;2023-11-19T00:24:42;15.82;;;14.23;;
12271;SDS011;6198;51.446;6.698;2023-11-19T00:27:08;12.20;;;10.32;;
12271;SDS011;6198;51.446;6.698;2023-11-19T00:29:34;12.10;;;10.98;;
12271;SDS011;6198;51.446;6.698;2023-11-19T00:32:01;13.95;;;9.98;;
12271;SDS011;6198;51.446;6.698;2023-11-19T00:34:27;10.70;;;9.07;;
12271;SDS011;6198;51.446;6.698;2023-11-19T00:36:53;10.35;;;9.25;;
12271;SDS011;6198;51.446;6.698;2023-11-19T00:39:20;9.10;;;8.10;;
12271;SDS011;6198;51.446;6.698;2023-11-19T00:41:46;6.57;;;5.83;;
12271;SDS011;6198;51.446;6.698;2023-11-19T00:44:12;8.23;;;6.70;;
12271;SDS011;6198;51.446;6.698;2023-11-19T00:46:38;11.20;;;10.10;;
12271;SDS011;6198;51.446;6.698;2023-11-19T00:49:04;8.03;;;7.23;;
12271;SDS011;6198;51.446;6.698;2023-11-19T00:51:30;9.17;;;7.37;;
12271;SDS011;6198;51.446;6.698;2023-11-19T00:53:56;8.23;;;6.83;;
12271;SDS011;6198;51.446;6.698;2023-11-19T00:56:22;11.87;;;7.37;;
12271;SDS011;6198;51.446;6.698;2023-11-19T00:58:49;7.17;;;6.47;;
12271;SDS011;6198;51.446;6.698;2023-11-19T01:01:15;7.23;;;6.53;;
12271;SDS011;6198;51.446;6.698;2023-11-19T01:03:41;10.30;;;9.20;;
12271;SDS011;6198;51.446;6.698;2023-11-19T01:06:07;11.18;;;9.88;;
12271;SDS011;6198;51.446;6.698;2023-11-19T01:08:33;10.25;;;9.32;;
12271;SDS011;6198;51.446;6.698;2023-11-19T01:11:00;10.85;;;9.82;;
12271;SDS011;6198;51.446;6.698;2023-11-19T01:13:27;8.53;;;6.77;;
12271;SDS011;6198;51.446;6.698;2023-11-19T01:15:53;7.50;;;6.77;;
12271;SDS011;6198;51.446;6.698;2023-11-19T01:18:21;8.80;;;7.90;;
12271;SDS011;6198;51.446;6.698;2023-11-19T01:20:47;11.63;;;6.73;;
12271;SDS011;6198;51.446;6.698;2023-11-19T01:23:13;6.43;;;5.77;;
12271;SDS011;6198;51.446;6.698;2023-11-19T01:25:39;10.23;;;5.53;;
12271;SDS011;6198;51.446;6.698;2023-11-19T01:28:05;5.87;;;5.37;;
12271;SDS011;6198;51.446;6.698;2023-11-19T01:30:31;6.07;;;5.27;;
12271;SDS011;6198;51.446;6.698;2023-11-19T01:32:57;7.03;;;5.93;;
12271;SDS011;6198;51.446;6.698;2023-11-19T01:35:22;7.37;;;5.97;;
12271;SDS011;6198;51.446;6.698;2023-11-19T01:37:48;6.97;;;5.87;;
12271;SDS011;6198;51.446;6.698;2023-11-19T01:40:19;7.60;;;5.80;;
12271;SDS011;6198;51.446;6.698;2023-11-19T01:42:45;7.80;;;5.13;;
12271;SDS011;6198;51.446;6.698;2023-11-19T01:45:15;7.00;;;5.67;;
12271;SDS011;6198;51.446;6.698;2023-11-19T01:47:45;6.50;;;5.90;;
12271;SDS011;6198;51.446;6.698;2023-11-19T01:50:11;7.90;;;5.97;;
12271;SDS011;6198;51.446;6.698;2023-11-19T01:52:37;6.57;;;5.90;;
12271;SDS011;6198;51.446;6.698;2023-11-19T01:55:04;7.07;;;6.33;;
12271;SDS011;6198;51.446;6.698;2023-11-19T01:57:30;9.67;;;6.23;;
12271;SDS011;6198;51.446;6.698;2023-11-19T01:59:56;7.10;;;6.40;;
12271;SDS011;6198;51.446;6.698;2023-11-19T02:02:22;8.83;;;6.43;;
12271;SDS011;6198;51.446;6.698;2023-11-19T02:04:49;7.93;;;5.37;;
12271;SDS011;6198;51.446;6.698;2023-11-19T02:07:15;9.73;;;5.87;;
12271;SDS011;6198;51.446;6.698;2023-11-19T02:09:45;9.10;;;6.53;;
12271;SDS011;6198;51.446;6.698;2023-11-19T02:12:11;9.20;;;6.00;;
12271;SDS011;6198;51.446;6.698;2023-11-19T02:14:37;9.80;;;4.93;;
12271;SDS011;6198;51.446;6.698;2023-11-19T02:17:03;8.40;;;5.30;;
12271;SDS011;6198;51.446;6.698;2023-11-19T02:19:29;7.40;;;4.70;;
12271;SDS011;6198;51.446;6.698;2023-11-19T02:21:55;9.43;;;4.57;;
12271;SDS011;6198;51.446;6.698;2023-11-19T02:24:22;11.40;;;4.90;;
12271;SDS011;6198;51.446;6.698;2023-11-19T02:29:17;7.10;;;4.40;;
12271;SDS011;6198;51.446;6.698;2023-11-19T02:31:43;10.53;;;4.70;;
12271;SDS011;6198;51.446;6.698;2023-11-19T02:34:10;9.97;;;4.90;;
12271;SDS011;6198;51.446;6.698;2023-11-19T02:36:37;17.63;;;5.47;;
12271;SDS011;6198;51.446;6.698;2023-11-19T02:39:03;17.40;;;4.97;;
12271;SDS011;6198;51.446;6.698;2023-11-19T02:41:33;10.37;;;4.63;;
12271;SDS011;6198;51.446;6.698;2023-11-19T02:43:59;10.97;;;4.20;;
12271;SDS011;6198;51.446;6.698;2023-11-19T02:46:26;12.23;;;4.00;;
12271;SDS011;6198;51.446;6.698;2023-11-19T02:48:51;14.87;;;4.87;;
12271;SDS011;6198;51.446;6.698;2023-11-19T02:51:17;13.13;;;4.90;;
12271;SDS011;6198;51.446;6.698;2023-11-19T02:53:44;12.87;;;4.97;;
12271;SDS011;6198;51.446;6.698;2023-11-19T02:56:13;11.50;;;4.23;;
12271;SDS011;6198;51.446;6.698;2023-11-19T02:58:50;12.50;;;4.77;;
12271;SDS011;6198;51.446;6.698;2023-11-19T03:01:23;15.30;;;4.50;;
12271;SDS011;6198;51.446;6.698;2023-11-19T03:03:54;14.40;;;4.77;;
12271;SDS011;6198;51.446;6.698;2023-11-19T03:06:21;10.87;;;4.70;;
12271;SDS011;6198;51.446;6.698;2023-11-19T03:08:47;10.03;;;4.20;;
12271;SDS011;6198;51.446;6.698;2023-11-19T03:11:14;13.73;;;4.70;;
12271;SDS011;6198;51.446;6.698;2023-11-19T03:13:39;13.37;;;4.17;;
12271;SDS011;6198;51.446;6.698;2023-11-19T03:16:06;17.73;;;5.10;;
12271;SDS011;6198;51.446;6.698;2023-11-19T03:18:32;14.77;;;4.13;;
12271;SDS011;6198;51.446;6.698;2023-11-19T03:20:58;15.73;;;4.53;;
12271;SDS011;6198;51.446;6.698;2023-11-19T03:23:24;15.93;;;4.40;;
12271;SDS011;6198;51.446;6.698;2023-11-19T03:25:52;14.00;;;4.63;;
12271;SDS011;6198;51.446;6.698;2023-11-19T03:28:18;13.70;;;3.83;;
12271;SDS011;6198;51.446;6.698;2023-11-19T03:30:44;16.00;;;4.83;;
12271;SDS011;6198;51.446;6.698;2023-11-19T03:33:10;17.03;;;4.90;;
12271;SDS011;6198;51.446;6.698;2023-11-19T03:35:36;20.77;;;4.70;;
12271;SDS011;6198;51.446;6.698;2023-11-19T03:38:02;12.40;;;3.83;;
12271;SDS011;6198;51.446;6.698;2023-11-19T03:40:28;21.77;;;5.30;;
12271;SDS011;6198;51.446;6.698;2023-11-19T03:42:57;24.30;;;4.73;;
12271;SDS011;6198;51.446;6.698;2023-11-19T03:45:23;17.03;;;4.37;;
12271;SDS011;6198;51.446;6.698;2023-11-19T03:47:50;25.30;;;4.77;;
12271;SDS011;6198;51.446;6.698;2023-11-19T03:50:16;22.63;;;4.20;;
12271;SDS011;6198;51.446;6.698;2023-11-19T03:52:43;22.97;;;4.50;;
12271;SDS011;6198;51.446;6.698;2023-11-19T03:55:09;14.13;;;3.80;;
12271;SDS011;6198;51.446;6.698;2023-11-19T03:57:35;15.97;;;4.17;;
12271;SDS011;6198;51.446;6.698;2023-11-19T04:00:01;21.42;;;5.30;;
12271;SDS011;6198;51.446;6.698;2023-11-19T04:02:34;13.30;;;3.83;;
12271;SDS011;6198;51.446;6.698;2023-11-19T04:05:00;13.60;;;4.18;;
12271;SDS011;6198;51.446;6.698;2023-11-19T04:07:26;16.40;;;3.97;;
12271;SDS011;6198;51.446;6.698;2023-11-19T04:09:52;15.27;;;4.10;;
12271;SDS011;6198;51.446;6.698;2023-11-19T04:12:18;15.27;;;4.90;;
12271;SDS011;6198;51.446;6.698;2023-11-19T04:14:44;21.13;;;4.10;;
12271;SDS011;6198;51.446;6.698;2023-11-19T04:17:10;16.43;;;4.30;;
12271;SDS011;6198;51.446;6.698;2023-11-19T04:19:36;19.70;;;4.27;;
12271;SDS011;6198;51.446;6.698;2023-11-19T04:22:02;17.93;;;4.83;;
12271;SDS011;6198;51.446;6.698;2023-11-19T04:24:28;17.13;;;4.00;;
12271;SDS011;6198;51.446;6.698;2023-11-19T04:26:54;21.53;;;4.73;;
12271;SDS011;6198;51.446;6.698;2023-11-19T04:29:20;20.07;;;5.10;;
12271;SDS011;6198;51.446;6.698;2023-11-19T04:31:46;21.40;;;4.93;;
12271;SDS011;6198;51.446;6.698;2023-11-19T04:34:12;29.23;;;6.07;;
12271;SDS011;6198;51.446;6.698;2023-11-19T04:36:38;20.67;;;4.13;;
12271;SDS011;6198;51.446;6.698;2023-11-19T04:39:04;20.93;;;4.87;;
12271;SDS011;6198;51.446;6.698;2023-11-19T04:41:45;17.73;;;5.60;;
12271;SDS011;6198;51.446;6.698;2023-11-19T04:44:11;19.20;;;5.63;;
12271;SDS011;6198;51.446;6.698;2023-11-19T04:46:37;22.60;;;4.97;;
12271;SDS011;6198;51.446;6.698;2023-11-19T04:49:03;20.07;;;5.07;;
12271;SDS011;6198;51.446;6.698;2023-11-19T04:51:29;21.17;;;4.43;;
12271;SDS011;6198;51.446;6.698;2023-11-19T04:53:55;23.00;;;5.37;;
12271;SDS011;6198;51.446;6.698;2023-11-19T04:56:21;24.97;;;5.70;;
12271;SDS011;6198;51.446;6.698;2023-11-19T04:58:48;27.43;;;6.33;;
12271;SDS011;6198;51.446;6.698;2023-11-19T05:01:14;20.00;;;5.77;;
12271;SDS011;6198;51.446;6.698;2023-11-19T05:03:43;21.73;;;4.33;;
12271;SDS011;6198;51.446;6.698;2023-11-19T05:06:10;21.00;;;5.60;;
12271;SDS011;6198;51.446;6.698;2023-11-19T05:08:36;23.67;;;5.47;;
12271;SDS011;6198;51.446;6.698;2023-11-19T05:11:02;21.33;;;5.70;;
12271;SDS011;6198;51.446;6.698;2023-11-19T05:13:28;25.83;;;5.87;;
12271;SDS011;6198;51.446;6.698;2023-11-19T05:15:54;21.57;;;4.77;;
12271;SDS011;6198;51.446;6.698;2023-11-19T05:18:20;25.20;;;5.53;;
12271;SDS011;6198;51.446;6.698;2023-11-19T05:20:46;21.95;;;5.78;;
12271;SDS011;6198;51.446;6.698;2023-11-19T05:23:12;35.03;;;6.47;;
12271;SDS011;6198;51.446;6.698;2023-11-19T05:25:38;20.87;;;4.53;;
12271;SDS011;6198;51.446;6.698;2023-11-19T05:28:04;25.77;;;6.07;;
12271;SDS011;6198;51.446;6.698;2023-11-19T05:30:30;31.10;;;5.83;;
12271;SDS011;6198;51.446;6.698;2023-11-19T05:32:56;22.37;;;4.67;;
12271;SDS011;6198;51.446;6.698;2023-11-19T05:35:22;21.40;;;5.18;;
12271;SDS011;6198;51.446;6.698;2023-11-19T05:37:48;28.35;;;6.70;;
12271;SDS011;6198;51.446;6.698;2023-11-19T05:40:15;28.05;;;5.60;;
12271;SDS011;6198;51.446;6.698;2023-11-19T05:42:42;24.73;;;5.85;;
12271;SDS011;6198;51.446;6.698;2023-11-19T05:45:10;29.17;;;6.57;;
12271;SDS011;6198;51.446;6.698;2023-11-19T05:47:36;22.77;;;5.35;;
12271;SDS011;6198;51.446;6.698;2023-11-19T05:50:02;31.20;;;5.97;;
12271;SDS011;6198;51.446;6.698;2023-11-19T05:52:30;25.02;;;5.80;;
12271;SDS011;6198;51.446;6.698;2023-11-19T05:54:59;25.05;;;6.50;;
12271;SDS011;6198;51.446;6.698;2023-11-19T05:57:29;23.55;;;5.90;;
12271;SDS011;6198;51.446;6.698;2023-11-19T05:59:54;25.60;;;5.70;;
12271;SDS011;6198;51.446;6.698;2023-11-19T06:02:21;28.50;;;6.33;;
12271;SDS011;6198;51.446;6.698;2023-11-19T06:04:46;31.00;;;5.70;;
12271;SDS011;6198;51.446;6.698;2023-11-19T06:07:13;32.88;;;6.82;;
12271;SDS011;6198;51.446;6.698;2023-11-19T06:09:40;25.63;;;6.20;;
12271;SDS011;6198;51.446;6.698;2023-11-19T06:12:06;28.42;;;6.05;;
12271;SDS011;6198;51.446;6.698;2023-11-19T06:14:32;28.48;;;6.70;;
12271;SDS011;6198;51.446;6.698;2023-11-19T06:16:58;29.13;;;6.45;;
12271;SDS011;6198;51.446;6.698;2023-11-19T06:19:25;30.13;;;5.90;;
12271;SDS011;6198;51.446;6.698;2023-11-19T06:21:50;26.20;;;5.40;;
12271;SDS011;6198;51.446;6.698;2023-11-19T06:24:16;25.30;;;4.60;;
12271;SDS011;6198;51.446;6.698;2023-11-19T06:26:42;23.13;;;4.67;;
12271;SDS011;6198;51.446;6.698;2023-11-19T06:29:08;25.75;;;6.20;;
12271;SDS011;6198;51.446;6.698;2023-11-19T06:31:34;30.50;;;6.32;;
12271;SDS011;6198;51.446;6.698;2023-11-19T06:34:01;28.80;;;6.40;;
12271;SDS011;6198;51.446;6.698;2023-11-19T06:36:28;28.67;;;5.75;;
12271;SDS011;6198;51.446;6.698;2023-11-19T06:38:54;25.03;;;5.40;;
12271;SDS011;6198;51.446;6.698;2023-11-19T06:41:20;23.17;;;5.43;;
12271;SDS011;6198;51.446;6.698;2023-11-19T06:43:46;31.50;;;7.07;;
12271;SDS011;6198;51.446;6.698;2023-11-19T06:46:15;25.23;;;6.00;;
12271;SDS011;6198;51.446;6.698;2023-11-19T06:48:41;23.63;;;4.97;;
12271;SDS011;6198;51.446;6.698;2023-11-19T06:51:09;21.77;;;5.57;;
12271;SDS011;6198;51.446;6.698;2023-11-19T06:53:35;31.42;;;6.70;;
12271;SDS011;6198;51.446;6.698;2023-11-19T06:56:01;29.58;;;6.22;;
12271;SDS011;6198;51.446;6.698;2023-11-19T06:58:31;32.15;;;6.45;;
12271;SDS011;6198;51.446;6.698;2023-11-19T07:00:59;27.60;;;6.07;;
12271;SDS011;6198;51.446;6.698;2023-11-19T07:03:25;34.50;;;6.40;;
12271;SDS011;6198;51.446;6.698;2023-11-19T07:05:51;38.85;;;7.22;;
12271;SDS011;6198;51.446;6.698;2023-11-19T07:08:17;31.08;;;6.68;;
12271;SDS011;6198;51.446;6.698;2023-11-19T07:10:43;29.08;;;6.78;;
12271;SDS011;6198;51.446;6.698;2023-11-19T07:13:09;34.17;;;7.00;;
12271;SDS011;6198;51.446;6.698;2023-11-19T07:15:35;32.88;;;6.72;;
12271;SDS011;6198;51.446;6.698;2023-11-19T07:18:01;31.77;;;7.07;;
12271;SDS011;6198;51.446;6.698;2023-11-19T07:20:27;29.63;;;5.57;;
12271;SDS011;6198;51.446;6.698;2023-11-19T07:22:53;23.50;;;5.43;;
12271;SDS011;6198;51.446;6.698;2023-11-19T07:25:20;28.83;;;6.60;;
12271;SDS011;6198;51.446;6.698;2023-11-19T07:27:46;27.73;;;6.75;;
12271;SDS011;6198;51.446;6.698;2023-11-19T07:30:13;30.88;;;7.00;;
12271;SDS011;6198;51.446;6.698;2023-11-19T07:32:39;30.40;;;6.93;;
12271;SDS011;6198;51.446;6.698;2023-11-19T07:35:05;23.03;;;6.17;;
12271;SDS011;6198;51.446;6.698;2023-11-19T07:37:31;31.38;;;6.40;;
12271;SDS011;6198;51.446;6.698;2023-11-19T07:39:57;23.63;;;5.77;;
12271;SDS011;6198;51.446;6.698;2023-11-19T07:42:23;27.70;;;6.03;;
12271;SDS011;6198;51.446;6.698;2023-11-19T07:44:49;30.48;;;7.13;;
12271;SDS011;6198;51.446;6.698;2023-11-19T07:47:15;23.90;;;5.70;;
12271;SDS011;6198;51.446;6.698;2023-11-19T07:49:41;24.87;;;5.83;;
12271;SDS011;6198;51.446;6.698;2023-11-19T07:52:08;29.83;;;5.97;;
12271;SDS011;6198;51.446;6.698;2023-11-19T07:54:35;24.10;;;6.07;;
12271;SDS011;6198;51.446;6.698;2023-11-19T07:57:01;26.67;;;5.73;;
12271;SDS011;6198;51.446;6.698;2023-11-19T07:59:27;25.53;;;5.17;;
12271;SDS011;6198;51.446;6.698;2023-11-19T08:01:53;23.83;;;5.83;;
12271;SDS011;6198;51.446;6.698;2023-11-19T08:04:19;29.48;;;6.82;;
12271;SDS011;6198;51.446;6.698;2023-11-19T08:06:45;28.53;;;5.93;;
12271;SDS011;6198;51.446;6.698;2023-11-19T08:09:11;28.00;;;5.23;;
12271;SDS011;6198;51.446;6.698;2023-11-19T08:11:39;34.07;;;6.17;;
12271;SDS011;6198;51.446;6.698;2023-11-19T08:14:05;24.60;;;5.57;;
12271;SDS011;6198;51.446;6.698;2023-11-19T08:16:30;30.77;;;5.70;;
12271;SDS011;6198;51.446;6.698;2023-11-19T08:18:56;29.60;;;6.40;;
12271;SDS011;6198;51.446;6.698;2023-11-19T08:21:23;31.47;;;6.57;;
12271;SDS011;6198;51.446;6.698;2023-11-19T08:23:49;33.53;;;5.90;;
12271;SDS011;6198;51.446;6.698;2023-11-19T08:26:15;25.23;;;5.33;;
12271;SDS011;6198;51.446;6.698;2023-11-19T08:28:42;26.13;;;6.23;;
12271;SDS011;6198;51.446;6.698;2023-11-19T08:31:08;28.90;;;7.20;;
12271;SDS011;6198;51.446;6.698;2023-11-19T08:33:34;26.60;;;6.20;;
12271;SDS011;6198;51.446;6.698;2023-11-19T08:36:00;26.53;;;5.70;;
12271;SDS011;6198;51.446;6.698;2023-11-19T08:38:28;35.77;;;6.80;;
12271;SDS011;6198;51.446;6.698;2023-11-19T08:40:54;31.00;;;5.73;;
12271;SDS011;6198;51.446;6.698;2023-11-19T08:43:25;27.57;;;5.67;;
12271;SDS011;6198;51.446;6.698;2023-11-19T08:45:51;28.07;;;6.30;;
12271;SDS011;6198;51.446;6.698;2023-11-19T08:48:17;38.28;;;7.47;;
12271;SDS011;6198;51.446;6.698;2023-11-19T08:50:43;27.65;;;6.72;;
12271;SDS011;6198;51.446;6.698;2023-11-19T08:53:09;33.50;;;7.47;;
12271;SDS011;6198;51.446;6.698;2023-11-19T08:55:36;30.73;;;7.60;;
12271;SDS011;6198;51.446;6.698;2023-11-19T08:58:02;33.25;;;7.38;;
12271;SDS011;6198;51.446;6.698;2023-11-19T09:00:28;23.43;;;6.10;;
12271;SDS011;6198;51.446;6.698;2023-11-19T09:02:54;31.08;;;7.55;;
12271;SDS011;6198;51.446;6.698;2023-11-19T09:05:20;32.20;;;7.30;;
12271;SDS011;6198;51.446;6.698;2023-11-19T09:07:46;26.50;;;6.63;;
12271;SDS011;6198;51.446;6.698;2023-11-19T09:10:14;31.20;;;6.00;;
12271;SDS011;6198;51.446;6.698;2023-11-19T09:12:41;37.08;;;7.20;;
12271;SDS011;6198;51.446;6.698;2023-11-19T09:15:07;29.23;;;6.97;;
12271;SDS011;6198;51.446;6.698;2023-11-19T09:17:35;28.58;;;7.18;;
12271;SDS011;6198;51.446;6.698;2023-11-19T09:20:01;34.60;;;6.97;;
12271;SDS011;6198;51.446;6.698;2023-11-19T09:22:27;34.85;;;6.90;;
12271;SDS011;6198;51.446;6.698;2023-11-19T09:24:53;30.20;;;6.23;;
12271;SDS011;6198;51.446;6.698;2023-11-19T09:27:19;24.33;;;5.73;;
12271;SDS011;6198;51.446;6.698;2023-11-19T09:29:45;28.13;;;5.83;;
12271;SDS011;6198;51.446;6.698;2023-11-19T09:32:13;25.47;;;5.57;;
12271;SDS011;6198;51.446;6.698;2023-11-19T09:34:39;25.13;;;5.73;;
12271;SDS011;6198;51.446;6.698;2023-11-19T09:37:05;23.67;;;5.20;;
12271;SDS011;6198;51.446;6.698;2023-11-19T09:39:31;25.07;;;5.60;;
12271;SDS011;6198;51.446;6.698;2023-11-19T09:41:57;22.20;;;5.33;;
12271;SDS011;6198;51.446;6.698;2023-11-19T09:44:23;32.90;;;6.03;;
12271;SDS011;6198;51.446;6.698;2023-11-19T09:46:49;23.07;;;5.17;;
12271;SDS011;6198;51.446;6.698;2023-11-19T09:49:16;27.53;;;6.53;;
12271;SDS011;6198;51.446;6.698;2023-11-19T09:51:47;21.17;;;5.00;;
12271;SDS011;6198;51.446;6.698;2023-11-19T09:54:13;28.13;;;7.03;;
12271;SDS011;6198;51.446;6.698;2023-11-19T09:56:39;33.30;;;6.83;;
12271;SDS011;6198;51.446;6.698;2023-11-19T09:59:06;29.40;;;5.60;;
12271;SDS011;6198;51.446;6.698;2023-11-19T10:01:32;26.40;;;6.00;;
12271;SDS011;6198;51.446;6.698;2023-11-19T10:03:59;25.17;;;6.50;;
12271;SDS011;6198;51.446;6.698;2023-11-19T10:06:25;24.80;;;5.90;;
12271;SDS011;6198;51.446;6.698;2023-11-19T10:08:52;25.07;;;5.53;;
12271;SDS011;6198;51.446;6.698;2023-11-19T10:11:18;24.70;;;6.07;;
12271;SDS011;6198;51.446;6.698;2023-11-19T10:13:44;29.53;;;6.57;;
12271;SDS011;6198;51.446;6.698;2023-11-19T10:16:12;27.13;;;5.07;;
12271;SDS011;6198;51.446;6.698;2023-11-19T10:18:45;26.00;;;6.37;;
12271;SDS011;6198;51.446;6.698;2023-11-19T10:21:14;21.80;;;5.70;;
12271;SDS011;6198;51.446;6.698;2023-11-19T10:23:54;24.60;;;6.37;;
12271;SDS011;6198;51.446;6.698;2023-11-19T10:26:25;31.43;;;6.13;;
12271;SDS011;6198;51.446;6.698;2023-11-19T10:28:52;32.57;;;7.87;;
12271;SDS011;6198;51.446;6.698;2023-11-19T10:31:19;27.27;;;6.47;;
12271;SDS011;6198;51.446;6.698;2023-11-19T10:33:51;27.23;;;6.63;;
12271;SDS011;6198;51.446;6.698;2023-11-19T10:36:18;24.73;;;6.37;;
12271;SDS011;6198;51.446;6.698;2023-11-19T10:38:54;25.40;;;5.60;;
12271;SDS011;6198;51.446;6.698;2023-11-19T10:41:30;29.10;;;6.70;;
12271;SDS011;6198;51.446;6.698;2023-11-19T10:43:57;26.23;;;5.20;;
12271;SDS011;6198;51.446;6.698;2023-11-19T10:46:23;30.73;;;6.20;;
12271;SDS011;6198;51.446;6.698;2023-11-19T10:49:01;15.67;;;5.17;;
12271;SDS011;6198;51.446;6.698;2023-11-19T10:51:27;21.00;;;5.00;;
12271;SDS011;6198;51.446;6.698;2023-11-19T10:53:54;18.93;;;4.73;;
12271;SDS011;6198;51.446;6.698;2023-11-19T10:56:25;22.37;;;5.37;;
12271;SDS011;6198;51.446;6.698;2023-11-19T10:58:51;23.87;;;5.17;;
12271;SDS011;6198;51.446;6.698;2023-11-19T11:01:19;22.33;;;5.93;;
12271;SDS011;6198;51.446;6.698;2023-11-19T11:03:48;23.53;;;5.73;;
12271;SDS011;6198;51.446;6.698;2023-11-19T11:06:18;20.57;;;5.73;;
12271;SDS011;6198;51.446;6.698;2023-11-19T11:08:44;25.90;;;7.13;;
12271;SDS011;6198;51.446;6.698;2023-11-19T11:11:11;30.27;;;5.57;;
12271;SDS011;6198;51.446;6.698;2023-11-19T11:13:39;23.80;;;4.80;;
12271;SDS011;6198;51.446;6.698;2023-11-19T11:16:08;14.20;;;4.83;;
12271;SDS011;6198;51.446;6.698;2023-11-19T11:18:34;21.97;;;5.47;;
12271;SDS011;6198;51.446;6.698;2023-11-19T11:21:01;16.37;;;5.33;;
12271;SDS011;6198;51.446;6.698;2023-11-19T11:26:36;24.27;;;5.67;;
12271;SDS011;6198;51.446;6.698;2023-11-19T11:34:26;29.80;;;5.67;;
12271;SDS011;6198;51.446;6.698;2023-11-19T11:36:59;17.07;;;4.57;;
12271;SDS011;6198;51.446;6.698;2023-11-19T11:39:28;20.27;;;4.43;;
12271;SDS011;6198;51.446;6.698;2023-11-19T11:44:59;18.93;;;4.60;;
12271;SDS011;6198;51.446;6.698;2023-11-19T11:47:25;20.47;;;5.60;;
12271;SDS011;6198;51.446;6.698;2023-11-19T11:49:51;21.47;;;4.57;;
12271;SDS011;6198;51.446;6.698;2023-11-19T11:52:18;20.83;;;5.37;;
12271;SDS011;6198;51.446;6.698;2023-11-19T11:54:44;24.73;;;5.50;;
12271;SDS011;6198;51.446;6.698;2023-11-19T11:57:13;19.37;;;4.83;;
12271;SDS011;6198;51.446;6.698;2023-11-19T11:59:43;23.37;;;5.43;;
12271;SDS011;6198;51.446;6.698;2023-11-19T12:02:11;18.77;;;4.73;;
12271;SDS011;6198;51.446;6.698;2023-11-19T12:04:39;19.67;;;5.63;;
12271;SDS011;6198;51.446;6.698;2023-11-19T12:07:06;28.63;;;5.47;;
12271;SDS011;6198;51.446;6.698;2023-11-19T12:09:32;22.83;;;4.40;;
12271;SDS011;6198;51.446;6.698;2023-11-19T12:12:11;17.93;;;4.83;;
12271;SDS011;6198;51.446;6.698;2023-11-19T12:14:59;22.07;;;5.50;;
12271;SDS011;6198;51.446;6.698;2023-11-19T12:20:04;16.23;;;4.67;;
12271;SDS011;6198;51.446;6.698;2023-11-19T12:22:34;17.93;;;4.17;;
12271;SDS011;6198;51.446;6.698;2023-11-19T12:25:00;20.33;;;4.63;;
12271;SDS011;6198;51.446;6.698;2023-11-19T12:27:27;24.30;;;5.07;;
12271;SDS011;6198;51.446;6.698;2023-11-19T12:29:53;19.43;;;4.63;;
12271;SDS011;6198;51.446;6.698;2023-11-19T12:32:21;15.90;;;4.57;;
12271;SDS011;6198;51.446;6.698;2023-11-19T12:34:47;17.77;;;4.57;;
12271;SDS011;6198;51.446;6.698;2023-11-19T12:37:13;21.23;;;4.93;;
12271;SDS011;6198;51.446;6.698;2023-11-19T12:39:40;21.43;;;4.90;;
12271;SDS011;6198;51.446;6.698;2023-11-19T12:42:06;20.90;;;4.50;;
12271;SDS011;6198;51.446;6.698;2023-11-19T12:44:32;18.15;;;4.75;;
12271;SDS011;6198;51.446;6.698;2023-11-19T12:47:03;21.13;;;5.53;;
12271;SDS011;6198;51.446;6.698;2023-11-19T12:49:29;14.67;;;4.27;;
12271;SDS011;6198;51.446;6.698;2023-11-19T12:51:56;16.37;;;3.70;;
12271;SDS011;6198;51.446;6.698;2023-11-19T12:54:31;16.87;;;4.20;;
12271;SDS011;6198;51.446;6.698;2023-11-19T12:56:57;14.47;;;4.20;;
12271;SDS011;6198;51.446;6.698;2023-11-19T12:59:23;17.30;;;4.13;;
12271;SDS011;6198;51.446;6.698;2023-11-19T13:01:59;14.73;;;3.53;;
12271;SDS011;6198;51.446;6.698;2023-11-19T13:04:30;15.60;;;3.47;;
12271;SDS011;6198;51.446;6.698;2023-11-19T13:06:59;14.00;;;3.67;;
12271;SDS011;6198;51.446;6.698;2023-11-19T13:09:26;13.63;;;3.63;;
12271;SDS011;6198;51.446;6.698;2023-11-19T13:11:53;15.10;;;4.03;;
12271;SDS011;6198;51.446;6.698;2023-11-19T13:14:20;14.73;;;3.90;;
12271;SDS011;6198;51.446;6.698;2023-11-19T13:16:46;16.87;;;4.13;;
12271;SDS011;6198;51.446;6.698;2023-11-19T13:19:12;18.33;;;4.83;;
12271;SDS011;6198;51.446;6.698;2023-11-19T13:21:38;17.27;;;4.57;;
12271;SDS011;6198;51.446;6.698;2023-11-19T13:24:05;15.93;;;4.00;;
12271;SDS011;6198;51.446;6.698;2023-11-19T13:26:31;18.23;;;5.97;;
12271;SDS011;6198;51.446;6.698;2023-11-19T13:28:57;21.83;;;4.40;;
12271;SDS011;6198;51.446;6.698;2023-11-19T13:31:23;21.43;;;4.57;;
12271;SDS011;6198;51.446;6.698;2023-11-19T13:33:49;16.07;;;4.50;;
12271;SDS011;6198;51.446;6.698;2023-11-19T13:36:15;18.27;;;4.13;;
12271;SDS011;6198;51.446;6.698;2023-11-19T13:38:41;17.93;;;4.70;;
12271;SDS011;6198;51.446;6.698;2023-11-19T13:41:09;19.47;;;3.90;;
12271;SDS011;6198;51.446;6.698;2023-11-19T13:43:36;20.50;;;5.10;;
12271;SDS011;6198;51.446;6.698;2023-11-19T13:46:02;21.63;;;4.40;;
12271;SDS011;6198;51.446;6.698;2023-11-19T13:48:28;19.60;;;4.13;;
12271;SDS011;6198;51.446;6.698;2023-11-19T13:50:55;20.37;;;4.97;;
12271;SDS011;6198;51.446;6.698;2023-11-19T13:53:21;23.87;;;5.30;;
12271;SDS011;6198;51.446;6.698;2023-11-19T13:55:48;21.37;;;4.13;;
12271;SDS011;6198;51.446;6.698;2023-11-19T13:58:14;19.33;;;5.00;;
12271;SDS011;6198;51.446;6.698;2023-11-19T14:00:40;18.80;;;4.67;;
12271;SDS011;6198;51.446;6.698;2023-11-19T14:03:07;19.43;;;4.60;;
12271;SDS011;6198;51.446;6.698;2023-11-19T14:05:34;20.33;;;4.27;;
12271;SDS011;6198;51.446;6.698;2023-11-19T14:08:00;17.30;;;4.77;;
12271;SDS011;6198;51.446;6.698;2023-11-19T14:10:26;17.30;;;3.90;;
12271;SDS011;6198;51.446;6.698;2023-11-19T14:12:52;19.63;;;4.17;;
12271;SDS011;6198;51.446;6.698;2023-11-19T14:15:18;22.80;;;5.40;;
12271;SDS011;6198;51.446;6.698;2023-11-19T14:17:44;14.80;;;4.17;;
12271;SDS011;6198;51.446;6.698;2023-11-19T14:20:10;28.33;;;5.30;;
12271;SDS011;6198;51.446;6.698;2023-11-19T14:22:41;27.87;;;4.53;;
12271;SDS011;6198;51.446;6.698;2023-11-19T14:25:07;20.97;;;4.50;;
12271;SDS011;6198;51.446;6.698;2023-11-19T14:27:38;25.50;;;5.10;;
12271;SDS011;6198;51.446;6.698;2023-11-19T14:30:05;24.93;;;5.60;;
12271;SDS011;6198;51.446;6.698;2023-11-19T14:32:31;23.93;;;5.37;;
12271;SDS011;6198;51.446;6.698;2023-11-19T14:34:57;24.73;;;4.70;;
12271;SDS011;6198;51.446;6.698;2023-11-19T14:37:23;20.90;;;4.57;;
12271;SDS011;6198;51.446;6.698;2023-11-19T14:39:49;20.20;;;5.00;;
12271;SDS011;6198;51.446;6.698;2023-11-19T14:42:16;13.93;;;3.73;;
12271;SDS011;6198;51.446;6.698;2023-11-19T14:44:41;15.07;;;4.10;;
12271;SDS011;6198;51.446;6.698;2023-11-19T14:47:07;19.90;;;5.03;;
12271;SDS011;6198;51.446;6.698;2023-11-19T14:49:37;21.80;;;5.37;;
12271;SDS011;6198;51.446;6.698;2023-11-19T14:52:03;18.77;;;4.40;;
12271;SDS011;6198;51.446;6.698;2023-11-19T14:54:29;18.00;;;4.37;;
12271;SDS011;6198;51.446;6.698;2023-11-19T14:56:56;15.77;;;4.13;;
12271;SDS011;6198;51.446;6.698;2023-11-19T14:59:22;17.93;;;4.30;;
12271;SDS011;6198;51.446;6.698;2023-11-19T15:01:48;17.63;;;5.23;;